sensor_id;sensor_type;location;lat;lon;timestamp;temperature;humidity
17423;DHT22;8829;47.932;7.810;2023-06-22T00:00:04;19.30;99.90
17423;DHT22;8829;47.932;7.810;2023-06-22T00:02:36;19.40;99.90
17423;DHT22;8829;47.932;7.810;2023-06-22T00:05:04;19.50;99.90
17423;DHT22;8829;47.932;7.810;2023-06-22T00:07:31;19.50;99.90
17423;DHT22;8829;47.932;7.810;2023-06-22T00:09:57;19.60;99.90
17423;DHT22;8829;47.932;7.810;2023-06-22T00:12:24;19.50;99.90
17423;DHT22;8829;47.932;7.810;2023-06-22T00:14:52;19.50;99.90
17423;DHT22;8829;47.932;7.810;2023-06-22T00:17:19;19.50;99.90
17423;DHT22;8829;47.932;7.810;2023-06-22T00:19:47;19.40;99.90
17423;DHT22;8829;47.932;7.810;2023-06-22T00:22:18;19.40;99.90
17423;DHT22;8829;47.932;7.810;2023-06-22T00:24:47;19.30;99.90
17423;DHT22;8829;47.932;7.810;2023-06-22T00:27:13;19.30;99.90
17423;DHT22;8829;47.932;7.810;2023-06-22T00:29:40;19.30;99.90
17423;DHT22;8829;47.932;7.810;2023-06-22T00:32:08;19.10;99.90
17423;DHT22;8829;47.932;7.810;2023-06-22T00:34:35;19.20;99.90
17423;DHT22;8829;47.932;7.810;2023-06-22T00:37:01;19.00;99.90
17423;DHT22;8829;47.932;7.810;2023-06-22T00:39:28;18.90;99.90
17423;DHT22;8829;47.932;7.810;2023-06-22T00:41:55;19.00;99.90
17423;DHT22;8829;47.932;7.810;2023-06-22T00:44:22;19.00;99.90
17423;DHT22;8829;47.932;7.810;2023-06-22T00:46:49;19.00;99.90
17423;DHT22;8829;47.932;7.810;2023-06-22T00:49:17;19.00;99.90
17423;DHT22;8829;47.932;7.810;2023-06-22T00:51:44;18.90;99.90
17423;DHT22;8829;47.932;7.810;2023-06-22T00:54:11;18.90;99.90
17423;DHT22;8829;47.932;7.810;2023-06-22T00:56:39;18.90;99.90
17423;DHT22;8829;47.932;7.810;2023-06-22T00:59:08;18.90;99.90
17423;DHT22;8829;47.932;7.810;2023-06-22T01:01:37;18.90;99.90
17423;DHT22;8829;47.932;7.810;2023-06-22T01:04:06;18.80;99.90
17423;DHT22;8829;47.932;7.810;2023-06-22T01:06:40;18.90;99.90
17423;DHT22;8829;47.932;7.810;2023-06-22T01:09:14;19.00;99.90
17423;DHT22;8829;47.932;7.810;2023-06-22T01:11:44;19.00;99.90
17423;DHT22;8829;47.932;7.810;2023-06-22T01:14:15;19.00;99.90
17423;DHT22;8829;47.932;7.810;2023-06-22T01:16:45;18.90;99.90
17423;DHT22;8829;47.932;7.810;2023-06-22T01:19:25;18.80;99.90
17423;DHT22;8829;47.932;7.810;2023-06-22T01:21:57;18.80;99.90
17423;DHT22;8829;47.932;7.810;2023-06-22T01:24:32;18.80;99.90
17423;DHT22;8829;47.932;7.810;2023-06-22T01:27:12;18.90;99.90
17423;DHT22;8829;47.932;7.810;2023-06-22T01:29:41;18.70;99.90
17423;DHT22;8829;47.932;7.810;2023-06-22T01:32:10;18.70;99.90
17423;DHT22;8829;47.932;7.810;2023-06-22T01:34:38;18.70;99.90
17423;DHT22;8829;47.932;7.810;2023-06-22T01:37:06;18.80;99.90
17423;DHT22;8829;47.932;7.810;2023-06-22T01:39:34;18.90;99.90
17423;DHT22;8829;47.932;7.810;2023-06-22T01:42:02;18.90;99.90
17423;DHT22;8829;47.932;7.810;2023-06-22T01:44:30;19.10;99.90
17423;DHT22;8829;47.932;7.810;2023-06-22T01:46:59;19.00;99.90
17423;DHT22;8829;47.932;7.810;2023-06-22T01:49:26;19.00;99.90
17423;DHT22;8829;47.932;7.810;2023-06-22T01:51:53;18.80;99.90
17423;DHT22;8829;47.932;7.810;2023-06-22T01:54:20;18.80;99.90
17423;DHT22;8829;47.932;7.810;2023-06-22T01:56:46;18.70;99.90
17423;DHT22;8829;47.932;7.810;2023-06-22T01:59:17;18.70;99.90
17423;DHT22;8829;47.932;7.810;2023-06-22T02:01:54;18.50;99.90
17423;DHT22;8829;47.932;7.810;2023-06-22T02:04:29;18.60;99.90
17423;DHT22;8829;47.932;7.810;2023-06-22T02:06:59;18.70;99.90
17423;DHT22;8829;47.932;7.810;2023-06-22T02:09:29;18.60;99.90
17423;DHT22;8829;47.932;7.810;2023-06-22T02:11:58;18.60;99.90
17423;DHT22;8829;47.932;7.810;2023-06-22T02:14:27;18.50;99.90
17423;DHT22;8829;47.932;7.810;2023-06-22T02:16:53;18.40;99.90
17423;DHT22;8829;47.932;7.810;2023-06-22T02:19:27;18.30;99.90
17423;DHT22;8829;47.932;7.810;2023-06-22T02:21:58;18.40;99.90
17423;DHT22;8829;47.932;7.810;2023-06-22T02:24:25;18.40;99.90
17423;DHT22;8829;47.932;7.810;2023-06-22T02:26:52;18.30;99.90
17423;DHT22;8829;47.932;7.810;2023-06-22T02:29:18;18.20;99.90
17423;DHT22;8829;47.932;7.810;2023-06-22T02:31:45;18.30;99.90
17423;DHT22;8829;47.932;7.810;2023-06-22T02:34:12;18.40;99.90
17423;DHT22;8829;47.932;7.810;2023-06-22T02:36:45;18.30;99.90
17423;DHT22;8829;47.932;7.810;2023-06-22T02:39:16;18.40;99.90
17423;DHT22;8829;47.932;7.810;2023-06-22T02:41:43;18.30;99.90
17423;DHT22;8829;47.932;7.810;2023-06-22T02:44:10;18.20;99.90
17423;DHT22;8829;47.932;7.810;2023-06-22T02:46:36;18.20;99.90
17423;DHT22;8829;47.932;7.810;2023-06-22T02:49:03;18.30;99.90
17423;DHT22;8829;47.932;7.810;2023-06-22T02:51:32;18.20;99.90
17423;DHT22;8829;47.932;7.810;2023-06-22T02:54:01;18.20;99.90
17423;DHT22;8829;47.932;7.810;2023-06-22T02:56:28;18.20;99.90
17423;DHT22;8829;47.932;7.810;2023-06-22T02:58:55;18.10;99.90
17423;DHT22;8829;47.932;7.810;2023-06-22T03:01:26;18.00;99.90
17423;DHT22;8829;47.932;7.810;2023-06-22T03:03:53;18.00;99.90
17423;DHT22;8829;47.932;7.810;2023-06-22T03:06:20;18.10;99.90
17423;DHT22;8829;47.932;7.810;2023-06-22T03:08:49;18.20;99.90
17423;DHT22;8829;47.932;7.810;2023-06-22T03:11:17;18.30;99.90
17423;DHT22;8829;47.932;7.810;2023-06-22T03:13:44;18.10;99.90
17423;DHT22;8829;47.932;7.810;2023-06-22T03:16:12;18.10;99.90
17423;DHT22;8829;47.932;7.810;2023-06-22T03:18:38;18.00;99.90
17423;DHT22;8829;47.932;7.810;2023-06-22T03:21:05;18.00;99.90
17423;DHT22;8829;47.932;7.810;2023-06-22T03:23:32;18.00;99.90
17423;DHT22;8829;47.932;7.810;2023-06-22T03:25:58;18.00;99.90
17423;DHT22;8829;47.932;7.810;2023-06-22T03:28:26;18.10;99.90
17423;DHT22;8829;47.932;7.810;2023-06-22T03:30:53;18.00;99.90
17423;DHT22;8829;47.932;7.810;2023-06-22T03:33:20;17.90;99.90
17423;DHT22;8829;47.932;7.810;2023-06-22T03:35:47;18.00;99.90
17423;DHT22;8829;47.932;7.810;2023-06-22T03:38:14;17.90;99.90
17423;DHT22;8829;47.932;7.810;2023-06-22T03:40:41;17.70;99.90
17423;DHT22;8829;47.932;7.810;2023-06-22T03:43:07;17.70;99.90
17423;DHT22;8829;47.932;7.810;2023-06-22T03:45:35;17.70;99.90
17423;DHT22;8829;47.932;7.810;2023-06-22T03:48:02;17.70;99.90
17423;DHT22;8829;47.932;7.810;2023-06-22T03:50:29;17.80;99.90
17423;DHT22;8829;47.932;7.810;2023-06-22T03:52:56;17.90;99.90
17423;DHT22;8829;47.932;7.810;2023-06-22T03:55:22;17.80;99.90
17423;DHT22;8829;47.932;7.810;2023-06-22T03:57:49;17.80;99.90
17423;DHT22;8829;47.932;7.810;2023-06-22T04:00:16;17.90;99.90
17423;DHT22;8829;47.932;7.810;2023-06-22T04:02:44;18.00;99.90
17423;DHT22;8829;47.932;7.810;2023-06-22T04:05:11;18.10;99.90
17423;DHT22;8829;47.932;7.810;2023-06-22T04:07:38;18.00;99.90
17423;DHT22;8829;47.932;7.810;2023-06-22T04:10:05;17.90;99.90
17423;DHT22;8829;47.932;7.810;2023-06-22T04:12:32;18.00;99.90
17423;DHT22;8829;47.932;7.810;2023-06-22T04:14:59;17.90;99.90
17423;DHT22;8829;47.932;7.810;2023-06-22T04:17:25;18.00;99.90
17423;DHT22;8829;47.932;7.810;2023-06-22T04:19:53;18.00;99.90
17423;DHT22;8829;47.932;7.810;2023-06-22T04:22:20;18.20;99.90
17423;DHT22;8829;47.932;7.810;2023-06-22T04:24:47;18.10;99.90
17423;DHT22;8829;47.932;7.810;2023-06-22T04:27:14;18.10;99.90
17423;DHT22;8829;47.932;7.810;2023-06-22T04:29:40;18.10;99.90
17423;DHT22;8829;47.932;7.810;2023-06-22T04:32:14;18.20;99.90
17423;DHT22;8829;47.932;7.810;2023-06-22T04:34:41;18.20;99.90
17423;DHT22;8829;47.932;7.810;2023-06-22T04:37:09;18.30;99.90
17423;DHT22;8829;47.932;7.810;2023-06-22T04:39:41;18.40;99.90
17423;DHT22;8829;47.932;7.810;2023-06-22T04:42:07;18.40;99.90
17423;DHT22;8829;47.932;7.810;2023-06-22T04:44:34;18.40;99.90
17423;DHT22;8829;47.932;7.810;2023-06-22T04:47:02;18.40;99.90
17423;DHT22;8829;47.932;7.810;2023-06-22T04:49:32;18.50;99.90
17423;DHT22;8829;47.932;7.810;2023-06-22T04:52:00;18.50;99.90
17423;DHT22;8829;47.932;7.810;2023-06-22T04:54:28;18.60;99.90
17423;DHT22;8829;47.932;7.810;2023-06-22T04:56:54;18.70;99.90
17423;DHT22;8829;47.932;7.810;2023-06-22T04:59:22;18.90;99.90
17423;DHT22;8829;47.932;7.810;2023-06-22T05:01:54;19.10;99.90
17423;DHT22;8829;47.932;7.810;2023-06-22T05:04:21;19.10;99.90
17423;DHT22;8829;47.932;7.810;2023-06-22T05:06:49;19.20;99.90
17423;DHT22;8829;47.932;7.810;2023-06-22T05:09:15;19.40;99.90
17423;DHT22;8829;47.932;7.810;2023-06-22T05:11:44;19.50;99.90
17423;DHT22;8829;47.932;7.810;2023-06-22T05:14:11;19.70;99.90
17423;DHT22;8829;47.932;7.810;2023-06-22T05:16:37;19.80;99.90
17423;DHT22;8829;47.932;7.810;2023-06-22T05:19:04;20.10;99.90
17423;DHT22;8829;47.932;7.810;2023-06-22T05:21:31;20.60;99.90
17423;DHT22;8829;47.932;7.810;2023-06-22T05:23:58;20.80;99.90
17423;DHT22;8829;47.932;7.810;2023-06-22T05:26:28;21.00;99.90
17423;DHT22;8829;47.932;7.810;2023-06-22T05:28:57;21.40;99.90
17423;DHT22;8829;47.932;7.810;2023-06-22T05:31:24;21.70;99.90
17423;DHT22;8829;47.932;7.810;2023-06-22T05:33:52;22.20;99.90
17423;DHT22;8829;47.932;7.810;2023-06-22T05:36:20;22.60;99.90
17423;DHT22;8829;47.932;7.810;2023-06-22T05:38:50;22.90;99.90
17423;DHT22;8829;47.932;7.810;2023-06-22T05:41:17;23.00;99.90
17423;DHT22;8829;47.932;7.810;2023-06-22T05:43:44;23.20;99.90
17423;DHT22;8829;47.932;7.810;2023-06-22T05:46:12;23.40;99.90
17423;DHT22;8829;47.932;7.810;2023-06-22T05:48:39;23.80;99.90
17423;DHT22;8829;47.932;7.810;2023-06-22T05:51:06;24.10;99.90
17423;DHT22;8829;47.932;7.810;2023-06-22T05:53:33;24.40;99.90
17423;DHT22;8829;47.932;7.810;2023-06-22T05:55:59;24.60;99.90
17423;DHT22;8829;47.932;7.810;2023-06-22T05:58:26;24.90;99.90
17423;DHT22;8829;47.932;7.810;2023-06-22T06:00:53;25.20;99.90
17423;DHT22;8829;47.932;7.810;2023-06-22T06:03:21;25.20;99.90
17423;DHT22;8829;47.932;7.810;2023-06-22T06:05:48;25.30;99.90
17423;DHT22;8829;47.932;7.810;2023-06-22T06:08:15;25.20;99.90
17423;DHT22;8829;47.932;7.810;2023-06-22T06:10:42;25.10;99.90
17423;DHT22;8829;47.932;7.810;2023-06-22T06:13:09;25.10;99.90
17423;DHT22;8829;47.932;7.810;2023-06-22T06:15:35;25.30;99.90
17423;DHT22;8829;47.932;7.810;2023-06-22T06:18:02;25.30;99.90
17423;DHT22;8829;47.932;7.810;2023-06-22T06:20:32;25.20;99.90
17423;DHT22;8829;47.932;7.810;2023-06-22T06:22:58;25.20;99.90
17423;DHT22;8829;47.932;7.810;2023-06-22T06:25:25;25.30;99.90
17423;DHT22;8829;47.932;7.810;2023-06-22T06:27:52;25.50;99.90
17423;DHT22;8829;47.932;7.810;2023-06-22T06:30:20;25.70;99.90
17423;DHT22;8829;47.932;7.810;2023-06-22T06:32:48;25.80;99.90
17423;DHT22;8829;47.932;7.810;2023-06-22T06:35:15;25.80;99.90
17423;DHT22;8829;47.932;7.810;2023-06-22T06:37:46;26.30;99.90
17423;DHT22;8829;47.932;7.810;2023-06-22T06:40:14;26.50;99.90
17423;DHT22;8829;47.932;7.810;2023-06-22T06:42:42;26.60;99.90
17423;DHT22;8829;47.932;7.810;2023-06-22T06:45:12;26.40;99.90
17423;DHT22;8829;47.932;7.810;2023-06-22T06:47:39;26.00;99.90
17423;DHT22;8829;47.932;7.810;2023-06-22T06:50:07;25.70;99.90
17423;DHT22;8829;47.932;7.810;2023-06-22T06:52:33;25.50;99.90
17423;DHT22;8829;47.932;7.810;2023-06-22T06:55:02;25.30;99.90
17423;DHT22;8829;47.932;7.810;2023-06-22T06:57:30;24.90;99.90
17423;DHT22;8829;47.932;7.810;2023-06-22T06:59:59;24.50;99.90
17423;DHT22;8829;47.932;7.810;2023-06-22T07:02:26;24.30;99.90
17423;DHT22;8829;47.932;7.810;2023-06-22T07:04:54;24.30;99.90
17423;DHT22;8829;47.932;7.810;2023-06-22T07:07:21;24.20;99.90
17423;DHT22;8829;47.932;7.810;2023-06-22T07:09:48;24.10;99.90
17423;DHT22;8829;47.932;7.810;2023-06-22T07:12:16;24.40;99.90
17423;DHT22;8829;47.932;7.810;2023-06-22T07:14:43;24.90;99.90
17423;DHT22;8829;47.932;7.810;2023-06-22T07:17:09;25.10;99.90
17423;DHT22;8829;47.932;7.810;2023-06-22T07:19:36;25.10;99.90
17423;DHT22;8829;47.932;7.810;2023-06-22T07:22:03;25.10;99.90
17423;DHT22;8829;47.932;7.810;2023-06-22T07:24:30;25.10;99.90
17423;DHT22;8829;47.932;7.810;2023-06-22T07:26:58;24.90;99.90
17423;DHT22;8829;47.932;7.810;2023-06-22T07:29:26;25.00;99.90
17423;DHT22;8829;47.932;7.810;2023-06-22T07:31:53;25.40;99.90
17423;DHT22;8829;47.932;7.810;2023-06-22T07:34:22;25.90;99.90
17423;DHT22;8829;47.932;7.810;2023-06-22T07:36:49;26.00;99.90
17423;DHT22;8829;47.932;7.810;2023-06-22T07:39:15;25.90;99.90
17423;DHT22;8829;47.932;7.810;2023-06-22T07:41:42;25.50;99.90
17423;DHT22;8829;47.932;7.810;2023-06-22T07:44:09;25.10;99.90
17423;DHT22;8829;47.932;7.810;2023-06-22T07:46:37;24.50;99.90
17423;DHT22;8829;47.932;7.810;2023-06-22T07:49:04;24.20;99.90
17423;DHT22;8829;47.932;7.810;2023-06-22T07:51:30;24.90;99.90
17423;DHT22;8829;47.932;7.810;2023-06-22T07:53:57;25.90;99.90
17423;DHT22;8829;47.932;7.810;2023-06-22T07:56:23;26.80;99.90
17423;DHT22;8829;47.932;7.810;2023-06-22T07:58:50;27.30;99.90
17423;DHT22;8829;47.932;7.810;2023-06-22T08:01:18;27.40;99.90
17423;DHT22;8829;47.932;7.810;2023-06-22T08:03:47;27.50;99.90
17423;DHT22;8829;47.932;7.810;2023-06-22T08:06:14;27.80;99.90
17423;DHT22;8829;47.932;7.810;2023-06-22T08:08:41;27.90;99.90
17423;DHT22;8829;47.932;7.810;2023-06-22T08:11:08;28.30;99.90
17423;DHT22;8829;47.932;7.810;2023-06-22T08:13:35;28.30;99.90
17423;DHT22;8829;47.932;7.810;2023-06-22T08:16:02;28.20;99.90
17423;DHT22;8829;47.932;7.810;2023-06-22T08:18:29;28.10;99.90
17423;DHT22;8829;47.932;7.810;2023-06-22T08:20:57;28.00;99.90
17423;DHT22;8829;47.932;7.810;2023-06-22T08:23:24;28.30;99.90
17423;DHT22;8829;47.932;7.810;2023-06-22T08:25:50;27.90;99.90
17423;DHT22;8829;47.932;7.810;2023-06-22T08:28:17;28.00;99.90
17423;DHT22;8829;47.932;7.810;2023-06-22T08:30:44;28.30;99.90
17423;DHT22;8829;47.932;7.810;2023-06-22T08:33:11;29.00;99.90
17423;DHT22;8829;47.932;7.810;2023-06-22T08:35:38;29.70;99.90
17423;DHT22;8829;47.932;7.810;2023-06-22T08:38:06;30.20;99.90
17423;DHT22;8829;47.932;7.810;2023-06-22T08:40:33;30.90;99.90
17423;DHT22;8829;47.932;7.810;2023-06-22T08:42:59;31.20;99.90
17423;DHT22;8829;47.932;7.810;2023-06-22T08:45:26;30.40;99.90
17423;DHT22;8829;47.932;7.810;2023-06-22T08:47:53;29.80;99.90
17423;DHT22;8829;47.932;7.810;2023-06-22T08:50:19;30.40;99.90
17423;DHT22;8829;47.932;7.810;2023-06-22T08:52:46;30.70;99.90
17423;DHT22;8829;47.932;7.810;2023-06-22T08:55:14;29.90;99.90
17423;DHT22;8829;47.932;7.810;2023-06-22T08:57:41;29.00;99.90
17423;DHT22;8829;47.932;7.810;2023-06-22T09:00:09;28.20;99.90
17423;DHT22;8829;47.932;7.810;2023-06-22T09:02:41;27.70;99.90
17423;DHT22;8829;47.932;7.810;2023-06-22T09:05:08;27.40;99.90
17423;DHT22;8829;47.932;7.810;2023-06-22T09:07:35;27.20;99.90
17423;DHT22;8829;47.932;7.810;2023-06-22T09:10:02;27.40;99.90
17423;DHT22;8829;47.932;7.810;2023-06-22T09:12:32;28.10;99.90
17423;DHT22;8829;47.932;7.810;2023-06-22T09:14:59;28.60;99.90
17423;DHT22;8829;47.932;7.810;2023-06-22T09:17:27;28.70;99.90
17423;DHT22;8829;47.932;7.810;2023-06-22T09:19:54;29.40;99.90
17423;DHT22;8829;47.932;7.810;2023-06-22T09:22:20;29.60;99.90
17423;DHT22;8829;47.932;7.810;2023-06-22T09:24:47;28.90;99.90
17423;DHT22;8829;47.932;7.810;2023-06-22T09:27:14;28.40;99.90
17423;DHT22;8829;47.932;7.810;2023-06-22T09:29:42;28.10;99.90
17423;DHT22;8829;47.932;7.810;2023-06-22T09:32:08;28.00;99.90
17423;DHT22;8829;47.932;7.810;2023-06-22T09:34:35;27.90;99.90
17423;DHT22;8829;47.932;7.810;2023-06-22T09:37:02;28.20;99.90
17423;DHT22;8829;47.932;7.810;2023-06-22T09:39:29;28.60;99.90
17423;DHT22;8829;47.932;7.810;2023-06-22T09:41:57;28.40;99.90
17423;DHT22;8829;47.932;7.810;2023-06-22T09:44:24;28.10;99.90
17423;DHT22;8829;47.932;7.810;2023-06-22T09:46:52;28.00;99.90
17423;DHT22;8829;47.932;7.810;2023-06-22T09:49:19;28.50;99.90
17423;DHT22;8829;47.932;7.810;2023-06-22T09:51:46;29.00;99.90
17423;DHT22;8829;47.932;7.810;2023-06-22T09:54:12;29.20;99.90
17423;DHT22;8829;47.932;7.810;2023-06-22T09:56:39;29.70;99.90
17423;DHT22;8829;47.932;7.810;2023-06-22T09:59:06;29.90;99.90
17423;DHT22;8829;47.932;7.810;2023-06-22T10:01:33;30.20;99.90
17423;DHT22;8829;47.932;7.810;2023-06-22T10:04:02;29.70;99.90
17423;DHT22;8829;47.932;7.810;2023-06-22T10:06:29;29.90;99.90
17423;DHT22;8829;47.932;7.810;2023-06-22T10:08:56;30.30;99.90
17423;DHT22;8829;47.932;7.810;2023-06-22T10:11:22;30.30;99.90
17423;DHT22;8829;47.932;7.810;2023-06-22T10:13:54;30.30;99.90
17423;DHT22;8829;47.932;7.810;2023-06-22T10:16:24;30.30;99.90
17423;DHT22;8829;47.932;7.810;2023-06-22T10:18:52;30.40;99.90
17423;DHT22;8829;47.932;7.810;2023-06-22T10:21:20;30.50;99.90
17423;DHT22;8829;47.932;7.810;2023-06-22T10:23:46;30.60;99.90
17423;DHT22;8829;47.932;7.810;2023-06-22T10:26:13;30.50;99.90
17423;DHT22;8829;47.932;7.810;2023-06-22T10:28:40;30.60;99.90
17423;DHT22;8829;47.932;7.810;2023-06-22T10:31:06;30.60;99.90
17423;DHT22;8829;47.932;7.810;2023-06-22T10:33:33;30.60;99.90
17423;DHT22;8829;47.932;7.810;2023-06-22T10:36:00;30.70;99.90
17423;DHT22;8829;47.932;7.810;2023-06-22T10:38:28;30.70;99.90
17423;DHT22;8829;47.932;7.810;2023-06-22T10:40:54;30.50;99.90
17423;DHT22;8829;47.932;7.810;2023-06-22T10:43:21;30.20;99.90
17423;DHT22;8829;47.932;7.810;2023-06-22T10:45:47;29.90;99.90
17423;DHT22;8829;47.932;7.810;2023-06-22T10:48:14;29.80;99.90
17423;DHT22;8829;47.932;7.810;2023-06-22T10:50:41;29.70;99.90
17423;DHT22;8829;47.932;7.810;2023-06-22T10:53:08;29.90;99.90
17423;DHT22;8829;47.932;7.810;2023-06-22T10:55:36;29.90;99.90
17423;DHT22;8829;47.932;7.810;2023-06-22T10:58:02;30.00;99.90
17423;DHT22;8829;47.932;7.810;2023-06-22T11:00:29;30.20;99.90
17423;DHT22;8829;47.932;7.810;2023-06-22T11:02:56;30.30;99.90
17423;DHT22;8829;47.932;7.810;2023-06-22T11:05:23;30.30;99.90
17423;DHT22;8829;47.932;7.810;2023-06-22T11:07:50;30.40;99.90
17423;DHT22;8829;47.932;7.810;2023-06-22T11:10:17;30.50;99.90
17423;DHT22;8829;47.932;7.810;2023-06-22T11:12:45;30.60;99.90
17423;DHT22;8829;47.932;7.810;2023-06-22T11:15:11;30.60;99.90
17423;DHT22;8829;47.932;7.810;2023-06-22T11:17:38;30.50;99.90
17423;DHT22;8829;47.932;7.810;2023-06-22T11:20:06;30.30;99.90
17423;DHT22;8829;47.932;7.810;2023-06-22T11:22:36;30.30;99.90
17423;DHT22;8829;47.932;7.810;2023-06-22T11:25:05;30.30;99.90
17423;DHT22;8829;47.932;7.810;2023-06-22T11:27:32;30.30;99.90
17423;DHT22;8829;47.932;7.810;2023-06-22T11:30:00;30.20;99.90
17423;DHT22;8829;47.932;7.810;2023-06-22T11:32:28;30.20;99.90
17423;DHT22;8829;47.932;7.810;2023-06-22T11:34:54;30.10;99.90
17423;DHT22;8829;47.932;7.810;2023-06-22T11:37:21;29.90;99.90
17423;DHT22;8829;47.932;7.810;2023-06-22T11:39:47;30.00;99.90
17423;DHT22;8829;47.932;7.810;2023-06-22T11:42:14;29.90;99.90
17423;DHT22;8829;47.932;7.810;2023-06-22T11:44:42;29.80;99.90
17423;DHT22;8829;47.932;7.810;2023-06-22T11:47:10;29.90;99.90
17423;DHT22;8829;47.932;7.810;2023-06-22T11:49:36;29.90;99.90
17423;DHT22;8829;47.932;7.810;2023-06-22T11:52:03;30.00;99.90
17423;DHT22;8829;47.932;7.810;2023-06-22T11:54:30;29.80;99.90
17423;DHT22;8829;47.932;7.810;2023-06-22T11:56:58;29.70;99.90
17423;DHT22;8829;47.932;7.810;2023-06-22T11:59:25;29.50;99.90
17423;DHT22;8829;47.932;7.810;2023-06-22T12:01:52;29.40;99.90
17423;DHT22;8829;47.932;7.810;2023-06-22T12:04:20;29.20;99.90
17423;DHT22;8829;47.932;7.810;2023-06-22T12:06:46;29.10;99.90
17423;DHT22;8829;47.932;7.810;2023-06-22T12:09:14;28.80;99.90
17423;DHT22;8829;47.932;7.810;2023-06-22T12:11:40;28.90;99.90
17423;DHT22;8829;47.932;7.810;2023-06-22T12:14:07;29.00;99.90
17423;DHT22;8829;47.932;7.810;2023-06-22T12:16:34;28.80;99.90
17423;DHT22;8829;47.932;7.810;2023-06-22T12:19:00;28.80;99.90
17423;DHT22;8829;47.932;7.810;2023-06-22T12:21:28;28.80;99.90
17423;DHT22;8829;47.932;7.810;2023-06-22T12:23:55;28.80;99.90
17423;DHT22;8829;47.932;7.810;2023-06-22T12:26:22;28.70;99.90
17423;DHT22;8829;47.932;7.810;2023-06-22T12:28:48;28.70;99.90
17423;DHT22;8829;47.932;7.810;2023-06-22T12:31:15;28.50;99.90
17423;DHT22;8829;47.932;7.810;2023-06-22T12:33:42;28.30;99.90
17423;DHT22;8829;47.932;7.810;2023-06-22T12:36:08;28.10;99.90
17423;DHT22;8829;47.932;7.810;2023-06-22T12:38:36;28.00;99.90
17423;DHT22;8829;47.932;7.810;2023-06-22T12:41:03;28.10;99.90
17423;DHT22;8829;47.932;7.810;2023-06-22T12:43:30;28.30;99.90
17423;DHT22;8829;47.932;7.810;2023-06-22T12:45:57;28.20;99.90
17423;DHT22;8829;47.932;7.810;2023-06-22T12:48:25;28.20;99.90
17423;DHT22;8829;47.932;7.810;2023-06-22T12:50:52;28.30;99.90
17423;DHT22;8829;47.932;7.810;2023-06-22T12:53:19;28.30;99.90
17423;DHT22;8829;47.932;7.810;2023-06-22T12:55:49;28.30;99.90
17423;DHT22;8829;47.932;7.810;2023-06-22T12:58:16;28.40;99.90
17423;DHT22;8829;47.932;7.810;2023-06-22T13:00:42;28.30;99.90
17423;DHT22;8829;47.932;7.810;2023-06-22T13:03:09;28.20;99.90
17423;DHT22;8829;47.932;7.810;2023-06-22T13:05:36;28.20;99.90
17423;DHT22;8829;47.932;7.810;2023-06-22T13:08:03;28.20;99.90
17423;DHT22;8829;47.932;7.810;2023-06-22T13:10:30;28.20;99.90
17423;DHT22;8829;47.932;7.810;2023-06-22T13:12:58;28.30;99.90
17423;DHT22;8829;47.932;7.810;2023-06-22T13:15:26;28.30;99.90
17423;DHT22;8829;47.932;7.810;2023-06-22T13:17:53;28.60;99.90
17423;DHT22;8829;47.932;7.810;2023-06-22T13:20:20;28.50;99.90
17423;DHT22;8829;47.932;7.810;2023-06-22T13:22:47;28.50;99.90
17423;DHT22;8829;47.932;7.810;2023-06-22T13:25:14;28.60;99.90
17423;DHT22;8829;47.932;7.810;2023-06-22T13:27:44;28.60;99.90
17423;DHT22;8829;47.932;7.810;2023-06-22T13:30:13;28.60;99.90
17423;DHT22;8829;47.932;7.810;2023-06-22T13:32:40;28.40;99.90
17423;DHT22;8829;47.932;7.810;2023-06-22T13:35:08;28.40;99.90
17423;DHT22;8829;47.932;7.810;2023-06-22T13:37:35;28.50;99.90
17423;DHT22;8829;47.932;7.810;2023-06-22T13:40:02;28.60;99.90
17423;DHT22;8829;47.932;7.810;2023-06-22T13:42:31;28.60;99.90
17423;DHT22;8829;47.932;7.810;2023-06-22T13:44:58;28.60;99.90
17423;DHT22;8829;47.932;7.810;2023-06-22T13:47:26;28.30;99.90
17423;DHT22;8829;47.932;7.810;2023-06-22T13:49:53;28.00;99.90
17423;DHT22;8829;47.932;7.810;2023-06-22T13:52:20;27.90;99.90
17423;DHT22;8829;47.932;7.810;2023-06-22T13:54:47;27.60;99.90
17423;DHT22;8829;47.932;7.810;2023-06-22T13:57:13;27.50;99.90
17423;DHT22;8829;47.932;7.810;2023-06-22T13:59:40;27.50;99.90
17423;DHT22;8829;47.932;7.810;2023-06-22T14:02:07;27.50;99.90
17423;DHT22;8829;47.932;7.810;2023-06-22T14:04:35;27.50;99.90
17423;DHT22;8829;47.932;7.810;2023-06-22T14:07:02;27.10;99.90
17423;DHT22;8829;47.932;7.810;2023-06-22T14:09:28;27.20;99.90
17423;DHT22;8829;47.932;7.810;2023-06-22T14:11:55;27.20;99.90
17423;DHT22;8829;47.932;7.810;2023-06-22T14:14:22;27.20;99.90
17423;DHT22;8829;47.932;7.810;2023-06-22T14:16:48;27.00;99.90
17423;DHT22;8829;47.932;7.810;2023-06-22T14:19:17;26.80;99.90
17423;DHT22;8829;47.932;7.810;2023-06-22T14:21:44;26.70;99.90
17423;DHT22;8829;47.932;7.810;2023-06-22T14:24:11;26.40;99.90
17423;DHT22;8829;47.932;7.810;2023-06-22T14:26:38;26.20;99.90
17423;DHT22;8829;47.932;7.810;2023-06-22T14:29:04;26.50;99.90
17423;DHT22;8829;47.932;7.810;2023-06-22T14:31:31;26.80;99.90
17423;DHT22;8829;47.932;7.810;2023-06-22T14:33:58;26.90;99.90
17423;DHT22;8829;47.932;7.810;2023-06-22T14:36:25;27.10;99.90
17423;DHT22;8829;47.932;7.810;2023-06-22T14:38:53;27.20;99.90
17423;DHT22;8829;47.932;7.810;2023-06-22T14:41:19;27.20;99.90
17423;DHT22;8829;47.932;7.810;2023-06-22T14:43:47;27.50;99.90
17423;DHT22;8829;47.932;7.810;2023-06-22T14:46:14;27.60;99.90
17423;DHT22;8829;47.932;7.810;2023-06-22T14:48:41;27.80;99.90
17423;DHT22;8829;47.932;7.810;2023-06-22T14:51:08;28.00;99.90
17423;DHT22;8829;47.932;7.810;2023-06-22T14:53:35;28.10;99.90
17423;DHT22;8829;47.932;7.810;2023-06-22T14:56:03;28.20;99.90
17423;DHT22;8829;47.932;7.810;2023-06-22T14:58:30;28.20;99.90
17423;DHT22;8829;47.932;7.810;2023-06-22T15:00:58;28.10;99.90
17423;DHT22;8829;47.932;7.810;2023-06-22T15:03:25;27.90;99.90
17423;DHT22;8829;47.932;7.810;2023-06-22T15:05:54;27.80;99.90
17423;DHT22;8829;47.932;7.810;2023-06-22T15:08:21;27.70;99.90
17423;DHT22;8829;47.932;7.810;2023-06-22T15:10:48;27.70;99.90
17423;DHT22;8829;47.932;7.810;2023-06-22T15:13:16;27.70;99.90
17423;DHT22;8829;47.932;7.810;2023-06-22T15:15:43;27.80;99.90
17423;DHT22;8829;47.932;7.810;2023-06-22T15:18:10;27.90;99.90
17423;DHT22;8829;47.932;7.810;2023-06-22T15:20:37;28.00;99.90
17423;DHT22;8829;47.932;7.810;2023-06-22T15:23:04;28.20;99.90
17423;DHT22;8829;47.932;7.810;2023-06-22T15:25:30;28.40;99.90
17423;DHT22;8829;47.932;7.810;2023-06-22T15:27:57;28.60;99.90
17423;DHT22;8829;47.932;7.810;2023-06-22T15:30:25;28.80;99.90
17423;DHT22;8829;47.932;7.810;2023-06-22T15:32:52;28.90;99.90
17423;DHT22;8829;47.932;7.810;2023-06-22T15:35:19;28.80;99.90
17423;DHT22;8829;47.932;7.810;2023-06-22T15:37:45;28.70;99.90
17423;DHT22;8829;47.932;7.810;2023-06-22T15:40:12;28.70;99.90
17423;DHT22;8829;47.932;7.810;2023-06-22T15:42:39;28.50;99.90
17423;DHT22;8829;47.932;7.810;2023-06-22T15:45:06;28.60;99.90